createdAt,value
2019-03-23T00:02:06.638Z,9.94
2019-03-23T00:12:14.739Z,9.35
2019-03-23T00:17:29.466Z,10.60
2019-03-23T00:22:39.659Z,10.16
2019-03-23T00:27:27.866Z,8.44
2019-03-23T00:32:48.146Z,7.45
2019-03-23T00:37:38.210Z,9.29
2019-03-23T00:42:36.762Z,7.12
2019-03-23T00:47:59.746Z,7.53
2019-03-23T00:53:00.841Z,16.93
2019-03-23T00:57:48.972Z,12.02
2019-03-23T01:02:57.770Z,9.53
2019-03-23T01:08:05.431Z,10.47
2019-03-23T01:13:12.668Z,9.50
2019-03-23T01:18:20.951Z,13.79
2019-03-23T01:23:29.272Z,9.28
2019-03-23T01:28:37.352Z,14.16
2019-03-23T01:33:45.652Z,11.03
2019-03-23T01:38:53.934Z,12.03
2019-03-23T01:44:01.317Z,10.60
2019-03-23T01:49:22.387Z,10.93
2019-03-23T01:54:09.750Z,11.00
2019-03-23T01:59:17.001Z,11.19
2019-03-23T02:04:24.533Z,9.17
2019-03-23T02:09:32.476Z,16.36
2019-03-23T02:14:54.519Z,10.18
2019-03-23T02:19:42.648Z,12.87
2019-03-23T02:24:50.924Z,12.48
2019-03-23T02:30:11.176Z,18.07
2019-03-23T02:35:11.558Z,9.83
2019-03-23T02:39:58.789Z,11.75
2019-03-23T02:45:19.052Z,10.65
2019-03-23T02:50:06.285Z,7.91
2019-03-23T02:55:14.808Z,11.37
2019-03-23T03:00:22.027Z,12.29
2019-03-23T03:05:29.428Z,12.43
2019-03-23T03:10:36.492Z,12.78
2019-03-23T03:15:44.781Z,10.64
2019-03-23T03:21:05.771Z,10.47
2019-03-23T03:26:07.060Z,13.34
2019-03-23T03:31:08.140Z,11.08
2019-03-23T03:35:55.546Z,11.16
2019-03-23T03:41:03.651Z,15.87
2019-03-23T03:46:12.104Z,16.49
2019-03-23T03:51:20.047Z,13.47
2019-03-23T03:56:28.449Z,10.42
2019-03-23T04:01:35.653Z,17.20
2019-03-23T04:06:43.313Z,11.77
2019-03-23T04:11:50.519Z,9.77
2019-03-23T04:16:57.887Z,8.70
2019-03-23T04:22:06.120Z,12.99
2019-03-23T04:27:13.526Z,11.32
2019-03-23T04:32:21.723Z,8.05
2019-03-23T04:37:42.231Z,7.36
2019-03-23T04:42:30.461Z,11.17
2019-03-23T04:47:38.046Z,7.27
2019-03-23T04:52:45.292Z,11.02
2019-03-23T04:57:52.747Z,7.93
2019-03-23T05:03:00.914Z,6.45
2019-03-23T05:08:08.210Z,10.24
2019-03-23T05:13:16.318Z,10.28
2019-03-23T05:18:24.741Z,8.65
2019-03-23T05:23:32.815Z,10.35
2019-03-23T05:28:41.109Z,8.86
2019-03-23T05:33:49.190Z,13.03
2019-03-23T05:38:57.751Z,11.43
2019-03-23T05:44:04.995Z,9.77
2019-03-23T05:49:26.185Z,11.35
2019-03-23T05:54:14.411Z,9.57
2019-03-23T05:59:22.537Z,10.10
2019-03-23T06:04:30.672Z,10.94
2019-03-23T06:09:38.908Z,11.71
2019-03-23T06:14:47.109Z,9.21
2019-03-23T06:19:54.739Z,10.62
2019-03-23T06:25:14.725Z,10.46
2019-03-23T06:30:03.083Z,11.51
2019-03-23T06:35:11.371Z,14.55
2019-03-23T06:40:18.826Z,8.33
2019-03-23T06:45:26.061Z,9.76
2019-03-23T06:50:33.387Z,9.28
2019-03-23T06:55:41.540Z,11.34
2019-03-23T07:00:49.824Z,9.85
2019-03-23T07:05:58.078Z,15.27
2019-03-23T07:11:05.501Z,12.71
2019-03-23T07:16:12.707Z,11.44
2019-03-23T07:21:34.946Z,12.63
2019-03-23T07:26:23.188Z,13.27
2019-03-23T07:31:31.285Z,15.82
2019-03-23T07:36:39.564Z,18.66
2019-03-23T07:42:00.013Z,15.43
2019-03-23T07:47:00.088Z,26.25
2019-03-23T07:51:48.307Z,14.80
2019-03-23T07:56:56.407Z,14.95
2019-03-23T08:02:04.700Z,15.36
2019-03-23T08:07:12.911Z,14.28
2019-03-23T08:12:20.153Z,14.08
2019-03-23T08:17:28.317Z,15.41
2019-03-23T08:22:36.708Z,16.96
2019-03-23T08:27:44.866Z,18.18
2019-03-23T08:33:06.097Z,16.72
2019-03-23T08:38:06.244Z,15.96
2019-03-23T08:52:55.708Z,16.37
2019-03-23T08:58:16.740Z,12.79
2019-03-23T09:03:05.067Z,12.57
2019-03-23T09:13:14.365Z,14.44
2019-03-23T09:18:21.524Z,15.00
2019-03-23T09:23:29.835Z,16.39
2019-03-23T09:33:44.363Z,14.66
2019-03-23T09:38:51.517Z,12.56
2019-03-23T09:44:13.160Z,11.12
2019-03-23T09:49:13.350Z,9.99
2019-03-23T09:54:02.767Z,9.52
2019-03-23T09:59:00.729Z,9.76
2019-03-23T10:04:09.224Z,10.21
2019-03-23T10:09:16.576Z,10.34
2019-03-23T10:14:36.934Z,8.31
2019-03-23T10:19:27.607Z,11.05
2019-03-23T10:24:24.714Z,8.45
2019-03-23T10:29:33.062Z,8.78
2019-03-23T10:34:53.196Z,12.79
2019-03-23T10:39:41.417Z,9.05
2019-03-23T10:44:48.816Z,8.47
2019-03-23T10:49:56.244Z,11.61
2019-03-23T10:55:03.576Z,10.38
2019-03-23T11:00:24.545Z,9.88
2019-03-23T11:05:12.833Z,9.52
2019-03-23T11:10:21.089Z,6.97
2019-03-23T11:15:41.159Z,5.85
2019-03-23T11:20:42.279Z,7.13
2019-03-23T11:25:30.690Z,8.07
2019-03-23T11:30:37.977Z,5.68
2019-03-23T11:32:18.356Z,9.30
2019-03-23T11:37:16.674Z,10.09
2019-03-23T11:42:37.800Z,7.11
2019-03-23T11:47:37.924Z,7.02
2019-03-23T11:52:26.177Z,10.47
2019-03-23T11:57:33.375Z,7.14
2019-03-23T12:02:41.483Z,7.12
2019-03-23T12:07:49.877Z,6.75
2019-03-23T12:18:00.150Z,7.83
2019-03-23T12:23:08.310Z,8.01
2019-03-23T12:28:16.640Z,6.78
2019-03-23T12:33:24.842Z,7.43
2019-03-23T12:38:32.939Z,9.01
2019-03-23T12:43:41.006Z,8.26
2019-03-23T12:49:02.506Z,6.71
2019-03-23T12:58:53.266Z,6.97
2019-03-23T13:04:00.512Z,6.24
2019-03-23T13:09:08.887Z,5.54
2019-03-23T13:14:16.930Z,5.48
2019-03-23T13:19:25.079Z,7.26
2019-03-23T13:24:33.355Z,5.94
2019-03-23T13:29:40.710Z,5.31
2019-03-23T13:35:00.703Z,4.17
2019-03-23T13:39:48.999Z,7.19
2019-03-23T13:44:57.305Z,6.49
2019-03-23T13:50:04.566Z,7.07
2019-03-23T14:00:26.693Z,4.31
2019-03-23T14:05:16.334Z,7.11
2019-03-23T14:10:22.329Z,8.06
2019-03-23T14:15:29.577Z,6.95
2019-03-23T14:20:36.892Z,6.67
2019-03-23T14:25:44.129Z,5.86
2019-03-23T14:30:51.410Z,5.07
2019-03-23T14:36:12.379Z,4.23
2019-03-23T14:41:00.729Z,6.39
2019-03-23T14:46:07.973Z,2.82
2019-03-23T14:51:15.219Z,7.28
2019-03-23T14:56:23.351Z,6.82
2019-03-23T15:01:32.525Z,4.06
2019-03-23T15:06:42.145Z,7.01
2019-03-23T15:11:49.498Z,6.80
2019-03-23T15:17:09.517Z,6.47
2019-03-23T15:22:11.046Z,5.89
2019-03-23T15:27:11.080Z,4.54
2019-03-23T15:31:59.335Z,5.51
2019-03-23T15:37:07.517Z,5.04
2019-03-23T15:42:24.296Z,5.19
2019-03-23T15:47:22.068Z,5.35
2019-03-23T15:52:30.634Z,6.86
2019-03-23T15:57:37.798Z,4.96
2019-03-23T16:02:46.040Z,7.05
2019-03-23T16:07:54.188Z,6.19
2019-03-23T16:13:02.691Z,7.97
2019-03-23T16:18:09.974Z,6.07
2019-03-23T16:23:17.137Z,5.54
2019-03-23T16:28:38.126Z,4.01
2019-03-23T16:33:26.935Z,7.83
2019-03-23T16:38:35.048Z,6.68
2019-03-23T16:43:56.441Z,5.55
2019-03-23T16:48:57.430Z,5.96
2019-03-23T16:53:47.986Z,5.03
2019-03-23T16:58:46.175Z,5.49
2019-03-23T17:03:54.433Z,6.93
2019-03-23T17:09:04.668Z,7.24
2019-03-23T17:14:15.012Z,7.13
2019-03-23T17:19:03.060Z,6.27
2019-03-23T17:24:11.237Z,5.47
2019-03-23T17:29:32.207Z,6.33
2019-03-23T17:34:20.540Z,6.20
2019-03-23T17:39:28.774Z,5.51
2019-03-23T17:44:37.120Z,4.61
2019-03-23T17:49:44.187Z,6.56
2019-03-23T17:54:52.399Z,6.54
2019-03-23T18:00:00.448Z,8.06
2019-03-23T18:05:09.533Z,7.86
2019-03-23T18:10:16.615Z,6.72
2019-03-23T18:15:24.693Z,8.75
2019-03-23T18:20:32.777Z,6.84
2019-03-23T18:25:53.952Z,7.15
2019-03-23T18:30:42.074Z,10.49
2019-03-23T18:36:03.233Z,11.71
2019-03-23T18:40:51.311Z,9.25
2019-03-23T18:46:12.670Z,12.59
2019-03-23T18:50:59.947Z,32.01
2019-03-23T18:56:07.422Z,23.42
2019-03-23T19:01:15.538Z,24.14
2019-03-23T19:06:22.845Z,20.54
2019-03-23T19:11:30.121Z,18.49
2019-03-23T19:16:37.555Z,14.96
2019-03-23T19:26:50.520Z,10.05
2019-03-23T19:31:58.837Z,9.13
2019-03-23T19:37:19.160Z,9.64
2019-03-23T19:42:06.246Z,13.16
2019-03-23T19:47:14.734Z,11.44
2019-03-23T19:52:21.967Z,12.21
2019-03-23T19:57:30.208Z,11.66
2019-03-23T20:02:38.347Z,9.68
2019-03-23T20:07:46.734Z,12.48
2019-03-23T20:12:54.878Z,10.52
2019-03-23T20:23:11.820Z,11.94
2019-03-23T20:28:20.045Z,10.61
2019-03-23T20:33:28.133Z,10.18
2019-03-23T20:38:36.445Z,11.64
2019-03-23T20:43:44.545Z,11.59
2019-03-23T20:48:52.860Z,9.77
2019-03-23T20:54:13.835Z,11.01
2019-03-23T20:59:01.082Z,12.04
2019-03-23T21:04:09.321Z,13.63
2019-03-23T21:09:16.879Z,13.93
2019-03-23T21:19:25.039Z,11.43
2019-03-23T21:24:32.228Z,10.60
2019-03-23T21:29:41.263Z,14.52
2019-03-23T21:35:00.886Z,12.98
2019-03-23T21:39:56.007Z,13.32
2019-03-23T21:45:07.125Z,14.93
2019-03-23T21:50:07.471Z,14.89
2019-03-23T21:54:54.582Z,11.35
2019-03-23T22:00:02.904Z,12.75
2019-03-23T22:05:23.036Z,10.58
2019-03-23T22:10:23.211Z,11.84
2019-03-23T22:15:11.298Z,13.90
2019-03-23T22:20:19.683Z,11.27
2019-03-23T22:25:26.768Z,9.34
2019-03-23T22:30:35.017Z,10.07
2019-03-23T22:35:56.110Z,12.09
2019-03-23T22:40:44.041Z,11.67
2019-03-23T22:45:51.147Z,10.96
2019-03-23T22:50:59.817Z,13.45
2019-03-23T22:56:20.894Z,17.55
2019-03-23T23:01:08.259Z,14.72
2019-03-23T23:11:21.838Z,11.61
2019-03-23T23:16:30.028Z,13.06
2019-03-23T23:21:50.347Z,15.05
2019-03-23T23:26:37.616Z,12.66
2019-03-23T23:31:58.721Z,15.71
2019-03-23T23:36:46.791Z,13.76
2019-03-23T23:42:07.911Z,13.87
2019-03-23T23:46:56.123Z,13.42
2019-03-23T23:52:04.389Z,14.91
2019-03-23T23:57:12.600Z,11.73
